createdAt,value
2022-12-15T00:00:34.131Z,-6.30
2022-12-15T00:05:42.504Z,-6.20
2022-12-15T00:10:51.404Z,-6.20
2022-12-15T00:15:59.683Z,-6.10
2022-12-15T00:21:08.324Z,-6.00
2022-12-15T00:26:16.782Z,-6.00
2022-12-15T00:31:25.603Z,-5.90
2022-12-15T00:36:34.014Z,-5.80
2022-12-15T00:41:42.812Z,-5.70
2022-12-15T00:46:51.293Z,-5.60
2022-12-15T00:52:00.014Z,-5.50
2022-12-15T00:57:08.484Z,-5.40
2022-12-15T01:02:17.776Z,-5.30
2022-12-15T01:07:25.909Z,-5.40
2022-12-15T01:12:34.734Z,-5.30
2022-12-15T01:17:42.941Z,-5.30
2022-12-15T01:22:51.732Z,-5.30
2022-12-15T01:27:59.973Z,-5.20
2022-12-15T01:33:08.903Z,-5.20
2022-12-15T01:38:17.371Z,-5.10
2022-12-15T01:43:26.091Z,-5.00
2022-12-15T01:48:34.462Z,-5.00
2022-12-15T01:53:43.156Z,-4.90
2022-12-15T01:58:51.106Z,-4.80
2022-12-15T02:03:59.714Z,-4.80
2022-12-15T02:09:08.000Z,-4.70
2022-12-15T02:14:16.794Z,-4.60
2022-12-15T02:19:24.948Z,-4.60
2022-12-15T02:24:34.004Z,-4.50
2022-12-15T02:29:42.494Z,-4.40
2022-12-15T02:34:50.963Z,-4.40
2022-12-15T02:39:59.157Z,-4.30
2022-12-15T02:45:08.120Z,-4.30
2022-12-15T02:50:16.638Z,-4.20
2022-12-15T02:55:25.159Z,-4.20
2022-12-15T03:00:33.839Z,-4.10
2022-12-15T03:05:42.628Z,-4.10
2022-12-15T03:10:50.894Z,-4.00
2022-12-15T03:15:59.620Z,-4.00
2022-12-15T03:21:08.149Z,-3.90
2022-12-15T03:26:16.716Z,-3.90
2022-12-15T03:31:25.294Z,-3.80
2022-12-15T03:36:34.158Z,-3.80
2022-12-15T03:41:42.291Z,-3.70
2022-12-15T03:46:50.726Z,-3.70
2022-12-15T03:51:59.060Z,-3.60
2022-12-15T03:57:07.756Z,-3.60
2022-12-15T04:02:16.352Z,-3.50
2022-12-15T04:07:24.839Z,-3.50
2022-12-15T04:12:33.171Z,-3.40
2022-12-15T04:17:41.754Z,-3.40
2022-12-15T04:22:50.251Z,-3.40
2022-12-15T04:28:01.642Z,-3.30
2022-12-15T04:33:07.330Z,-3.20
2022-12-15T04:38:16.041Z,-3.10
2022-12-15T04:43:24.562Z,-3.00
2022-12-15T04:48:32.978Z,-2.90
2022-12-15T04:53:41.032Z,-2.80
2022-12-15T04:58:49.945Z,-2.80
2022-12-15T05:03:58.291Z,-2.70
2022-12-15T05:09:06.954Z,-2.70
2022-12-15T05:14:15.220Z,-2.70
2022-12-15T05:19:23.800Z,-2.60
2022-12-15T05:24:32.219Z,-2.60
2022-12-15T05:29:43.530Z,-2.60
2022-12-15T05:34:41.504Z,-2.60
2022-12-15T05:39:50.311Z,-2.50
2022-12-15T05:44:58.439Z,-2.60
2022-12-15T05:50:07.938Z,-2.60
2022-12-15T05:55:20.285Z,-2.50
2022-12-15T06:00:18.877Z,-2.50
2022-12-15T06:05:27.327Z,-2.40
2022-12-15T06:10:35.625Z,-2.40
2022-12-15T06:15:44.093Z,-2.30
2022-12-15T06:20:53.430Z,-2.30
2022-12-15T06:26:01.758Z,-2.30
2022-12-15T06:31:10.867Z,-2.20
2022-12-15T06:36:19.074Z,-2.10
2022-12-15T06:41:27.864Z,-2.10
2022-12-15T06:46:36.258Z,-2.00
2022-12-15T06:51:44.921Z,-2.00
2022-12-15T06:56:53.903Z,-1.90
2022-12-15T07:02:02.632Z,-1.90
2022-12-15T07:07:10.602Z,-1.90
2022-12-15T07:12:19.023Z,-1.80
2022-12-15T07:17:28.324Z,-1.80
2022-12-15T07:22:37.621Z,-1.70
2022-12-15T07:27:45.901Z,-1.60
2022-12-15T07:32:55.109Z,-1.60
2022-12-15T07:38:03.335Z,-1.50
2022-12-15T07:43:12.626Z,-1.40
2022-12-15T07:48:22.662Z,-1.30
2022-12-15T07:53:21.478Z,-1.20
2022-12-15T07:58:33.446Z,-1.20
2022-12-15T08:03:36.619Z,-1.20
2022-12-15T08:08:34.293Z,-1.20
2022-12-15T08:14:03.595Z,-1.10
2022-12-15T08:18:41.883Z,-1.00
2022-12-15T08:23:50.837Z,-1.00
2022-12-15T08:29:24.399Z,-1.00
2022-12-15T08:34:09.529Z,-1.00
2022-12-15T08:39:18.995Z,-0.80
2022-12-15T08:44:28.196Z,-0.70
2022-12-15T08:49:36.912Z,-0.60
2022-12-15T08:54:45.848Z,-0.60
2022-12-15T08:59:54.492Z,-0.50
2022-12-15T09:05:02.897Z,-0.40
2022-12-15T09:10:12.391Z,-0.40
2022-12-15T09:15:33.961Z,-0.30
2022-12-15T09:20:29.182Z,-0.20
2022-12-15T09:25:38.649Z,-0.10
2022-12-15T09:30:46.921Z,-0.10
2022-12-15T09:35:55.321Z,-0.10
2022-12-15T09:41:03.648Z,0.00
2022-12-15T09:46:12.171Z,0.10
2022-12-15T09:51:20.674Z,0.10
2022-12-15T09:56:29.597Z,0.10
2022-12-15T10:01:37.853Z,0.00
2022-12-15T10:06:50.543Z,0.00
2022-12-15T10:11:55.040Z,0.00
2022-12-15T10:17:03.489Z,-0.10
2022-12-15T10:22:11.915Z,-0.10
2022-12-15T10:27:20.945Z,-0.20
2022-12-15T10:32:29.712Z,-0.20
2022-12-15T10:37:38.583Z,-0.20
2022-12-15T10:42:47.001Z,-0.30
2022-12-15T10:47:55.701Z,-0.30
2022-12-15T10:53:03.880Z,-0.30
2022-12-15T10:58:12.581Z,-0.30
2022-12-15T11:03:21.224Z,-0.30
2022-12-15T11:08:29.735Z,-0.30
2022-12-15T11:13:38.858Z,-0.30
2022-12-15T11:18:46.723Z,-0.40
2022-12-15T11:23:54.462Z,-0.40
2022-12-15T11:29:03.530Z,-0.50
2022-12-15T11:34:11.863Z,-0.50
2022-12-15T11:39:20.777Z,-0.50
2022-12-15T11:44:29.262Z,-0.60
2022-12-15T11:49:41.163Z,-0.50
2022-12-15T11:54:45.613Z,-0.50
2022-12-15T11:59:54.325Z,-0.50
2022-12-15T12:05:02.589Z,-0.50
2022-12-15T12:10:11.497Z,-0.50
2022-12-15T12:15:19.947Z,-0.50
2022-12-15T12:20:28.817Z,-0.50
2022-12-15T12:25:37.202Z,-0.40
2022-12-15T12:30:45.765Z,-0.40
2022-12-15T12:35:54.129Z,-0.40
2022-12-15T12:41:02.819Z,-0.40
2022-12-15T12:46:11.388Z,-0.40
2022-12-15T12:51:20.088Z,-0.30
2022-12-15T12:56:28.450Z,-0.30
2022-12-15T13:01:37.295Z,-0.30
2022-12-15T13:06:45.994Z,-0.30
2022-12-15T13:11:54.723Z,-0.30
2022-12-15T13:17:25.602Z,-0.30
2022-12-15T13:22:11.380Z,-0.20
2022-12-15T13:27:19.645Z,-0.20
2022-12-15T13:32:29.791Z,-0.20
2022-12-15T13:37:21.648Z,-0.20
2022-12-15T13:42:37.260Z,-0.20
2022-12-15T13:47:38.466Z,-0.30
2022-12-15T13:53:19.036Z,-0.20
2022-12-15T13:57:55.913Z,-0.10
2022-12-15T14:03:04.650Z,-0.10
2022-12-15T14:08:12.815Z,-0.10
2022-12-15T14:13:21.626Z,-0.10
2022-12-15T14:18:30.045Z,-0.10
2022-12-15T14:23:39.422Z,0.00
2022-12-15T14:28:47.829Z,0.10
2022-12-15T14:33:56.113Z,0.10
2022-12-15T14:39:05.088Z,0.10
2022-12-15T14:44:37.180Z,0.10
2022-12-15T14:49:21.647Z,0.10
2022-12-15T14:54:30.606Z,0.20
2022-12-15T14:59:39.323Z,0.20
2022-12-15T15:04:49.986Z,0.20
2022-12-15T15:09:49.026Z,0.20
2022-12-15T15:14:58.294Z,0.30
2022-12-15T15:20:08.311Z,0.30
2022-12-15T15:25:18.675Z,0.30
2022-12-15T15:30:17.220Z,0.40
2022-12-15T15:35:26.104Z,0.40
2022-12-15T15:40:36.155Z,0.40
2022-12-15T15:45:35.152Z,0.50
2022-12-15T15:50:43.924Z,0.50
2022-12-15T15:55:52.639Z,0.60
2022-12-15T16:01:01.417Z,0.60
2022-12-15T16:06:10.148Z,0.70
2022-12-15T16:11:18.966Z,0.60
2022-12-15T16:16:27.853Z,0.70
2022-12-15T16:21:37.556Z,0.80
2022-12-15T16:26:46.453Z,0.80
2022-12-15T16:31:57.367Z,0.80
2022-12-15T16:36:56.097Z,0.80
2022-12-15T16:42:04.645Z,0.90
2022-12-15T16:47:13.363Z,0.90
2022-12-15T16:52:21.954Z,0.90
2022-12-15T16:57:31.085Z,1.10
2022-12-15T17:02:40.022Z,1.20
2022-12-15T17:07:48.992Z,1.20
2022-12-15T17:12:57.640Z,1.10
2022-12-15T17:18:06.396Z,1.10
2022-12-15T17:23:14.844Z,1.20
2022-12-15T17:28:23.529Z,1.20
2022-12-15T17:33:32.262Z,1.10
2022-12-15T17:38:40.030Z,1.10
2022-12-15T17:44:04.307Z,1.10
2022-12-15T17:48:57.251Z,1.10
2022-12-15T17:54:06.120Z,1.10
2022-12-15T17:59:14.896Z,1.10
2022-12-15T18:04:23.509Z,1.10
2022-12-15T18:09:32.218Z,1.10
2022-12-15T18:14:40.775Z,1.00
2022-12-15T18:19:49.582Z,1.00
2022-12-15T18:24:58.059Z,0.90
2022-12-15T18:30:08.142Z,1.00
2022-12-15T18:35:06.448Z,0.90
2022-12-15T18:40:15.412Z,0.90
2022-12-15T18:45:26.827Z,0.90
2022-12-15T18:50:32.314Z,0.90
2022-12-15T18:55:41.015Z,0.80
2022-12-15T19:00:49.807Z,0.80
2022-12-15T19:05:58.439Z,0.80
2022-12-15T19:11:07.113Z,0.70
2022-12-15T19:16:18.513Z,0.70
2022-12-15T19:21:17.224Z,0.70
2022-12-15T19:26:25.741Z,0.70
2022-12-15T19:31:34.621Z,0.70
2022-12-15T19:36:42.950Z,0.70
2022-12-15T19:41:51.610Z,0.60
2022-12-15T19:47:00.331Z,0.60
2022-12-15T19:52:08.773Z,0.60
2022-12-15T19:57:17.762Z,0.50
2022-12-15T20:02:26.953Z,0.50
2022-12-15T20:07:36.381Z,0.40
2022-12-15T20:12:45.012Z,0.30
2022-12-15T20:17:53.530Z,0.20
2022-12-15T20:23:01.699Z,0.10
2022-12-15T20:28:10.243Z,0.10
2022-12-15T20:33:19.261Z,0.00
2022-12-15T20:38:27.761Z,0.10
2022-12-15T20:43:37.010Z,0.10
2022-12-15T20:48:45.354Z,0.00
2022-12-15T20:53:53.610Z,-0.10
2022-12-15T20:59:01.942Z,-0.20
2022-12-15T21:04:11.245Z,-0.30
2022-12-15T21:09:20.449Z,-0.40
2022-12-15T21:14:30.068Z,-0.50
2022-12-15T21:19:38.990Z,-0.50
2022-12-15T21:24:47.877Z,-0.50
2022-12-15T21:29:56.315Z,-0.60
2022-12-15T21:35:05.463Z,-0.60
2022-12-15T21:40:14.310Z,-0.60
2022-12-15T21:45:23.590Z,-0.60
2022-12-15T21:50:32.130Z,-0.70
2022-12-15T21:55:40.893Z,-0.70
2022-12-15T22:00:49.769Z,-0.70
2022-12-15T22:05:58.532Z,-0.70
2022-12-15T22:11:07.136Z,-0.80
2022-12-15T22:16:15.775Z,-0.80
2022-12-15T22:21:24.837Z,-0.90
2022-12-15T22:26:33.552Z,-0.90
2022-12-15T22:31:42.269Z,-0.90
2022-12-15T22:36:51.868Z,-0.90
2022-12-15T22:41:59.354Z,-0.90
2022-12-15T22:47:08.486Z,-0.90
2022-12-15T22:52:17.339Z,-1.00
2022-12-15T22:57:26.584Z,-1.00
2022-12-15T23:02:35.478Z,-1.10
2022-12-15T23:07:44.115Z,-1.10
2022-12-15T23:12:52.707Z,-1.10
2022-12-15T23:18:01.672Z,-1.10
2022-12-15T23:23:10.494Z,-1.10
2022-12-15T23:28:18.891Z,-1.10
2022-12-15T23:33:27.793Z,-1.10
2022-12-15T23:38:36.769Z,-1.20
2022-12-15T23:43:45.013Z,-1.30
2022-12-15T23:48:54.066Z,-1.30
2022-12-15T23:54:02.047Z,-1.20
2022-12-15T23:59:11.025Z,-1.30
